Indianola, MS

6:59 PM CDT on July 31, 2014 (GMT -0500)
Mid Delta Regional (KGLH) Elev 131 ft | 33.48 °N, 90.99 °W | Change Station

Current weather conditions updated 6 minutes ago

Light Rain
Light Rain
74 °F
Feels Like 74 °F
N
0
Wind Variable Wind from North

Tomorrow is forecast to be nearly the same temperature as today. A few thunderstorms possible.

Today
High -- | Low -- °F
--% Chance of Precip.
Yesterday
High -- | Low -- °F
Precip. -- in
6:14 AM 8:03 PM
Waxing Crescent, 22% visible
Pressure 30.05 in
Visibility 6.0 miles
Clouds Few 5500 ft
Scattered Clouds 7500 ft
Mostly Cloudy 10000 ft
Dew Point 69 °F
Humidity 85%
Rainfall 0.12 in
Snow Depth Not available.
UV 0 out of 12
Pollen 3.20 out of 12
Air Quality Not available.
Flu Activity Not available.
METAR KGLH 312353Z AUTO 00000KT 6SM -RA FEW055 SCT075 BKN100 23/21 A3003 RMK AO2 SLP175 P0000 60009 T02330206 10272 20228 58006

More Conditions Fewer Conditions

Pressure 30.05 in
Visibility 6.0 miles
Clouds Few 5500 ft
Scattered Clouds 7500 ft
Mostly Cloudy 10000 ft
Dew Point 69 °F
Humidity 85%
Rainfall 0.12 in
Snow Depth Not available.
UV 0 out of 12
Pollen 3.20 out of 12
Air Quality Not available.
Flu Activity Not available.
METAR KGLH 312353Z AUTO 00000KT 6SM -RA FEW055 SCT075 BKN100 23/21 A3003 RMK AO2 SLP175 P0000 60009 T02330206 10272 20228 58006

More Conditions Fewer Conditions

10-Day Weather Forecast

Almanac

Astronomy

Jul. 31, 2014 Rise Set
Actual Time 6:14 AM CDT 8:03 PM CDT
Civil Twilight 5:47 AM CDT 8:30 PM CDT
Nautical Twilight 5:14 AM CDT 9:03 PM CDT
Astronomical Twilight 4:39 AM CDT 9:37 PM CDT
Moon 10:26 AM CDT 10:33 PM CDT
Length of Visible Light 14h 43m
Length of Day
13h 48m
Tomorrow will be 1m 32s shorter.
Waxing Crescent, 22% of the Moon is Illuminated
Today
Waxing Crescent
Aug 3
First Quarter
Aug 10
Full
Aug 17
Last Quarter
Aug 25
New

Today's Extremes

State Highs State Lows

Community

WunderPhotos

Upload Photos

1,739,460 photos uploaded!

Nearby

Snow Depth

Station Depth Elevation
No new snow has been reported.

Earthquake Activity

City Distance Mag. Time & Date
No recent earthquake activity has been reported nearby.
Minimum magnitude displayed is 2.5.

Coastal Water Temperatures

Place Temperature
No Stations Reporting

Nearby Weather Stations

Station Location Temp. Heat Index Dew Point Humidity Wind Precip. Elev Updated Type
MesoWest BEASLEY LAKE , Inverness, MS 76 °F 76 °F 73 °F 91% WSW  at  1 mph 0.00 in / hr 115 ft 5:00 PM CDT MADIS

Show More Stations Show Fewer Stations